createdAt,value
2019-01-20T00:00:35.119Z,10.30
2019-01-20T00:03:03.398Z,12.57
2019-01-20T00:05:31.915Z,14.27
2019-01-20T00:08:00.240Z,12.07
2019-01-20T00:10:28.485Z,13.73
2019-01-20T00:12:56.809Z,11.23
2019-01-20T00:15:25.059Z,13.23
2019-01-20T00:17:53.398Z,11.47
2019-01-20T00:20:21.816Z,14.90
2019-01-20T00:22:50.095Z,14.53
2019-01-20T00:25:18.387Z,11.27
2019-01-20T00:27:46.692Z,10.90
2019-01-20T00:30:18.208Z,12.47
2019-01-20T00:32:46.593Z,12.17
2019-01-20T00:35:15.917Z,10.27
2019-01-20T00:37:44.399Z,11.33
2019-01-20T00:40:15.992Z,10.87
2019-01-20T00:42:44.356Z,12.60
2019-01-20T00:45:15.094Z,11.93
2019-01-20T00:47:43.391Z,9.93
2019-01-20T00:50:13.705Z,11.93
2019-01-20T00:52:42.005Z,13.00
2019-01-20T00:55:13.035Z,9.37
2019-01-20T00:57:41.907Z,12.13
2019-01-20T01:00:19.150Z,12.10
2019-01-20T01:02:47.511Z,9.33
2019-01-20T01:05:16.029Z,13.27
2019-01-20T01:07:44.439Z,13.20
2019-01-20T01:10:12.760Z,13.27
2019-01-20T01:12:41.429Z,13.77
2019-01-20T01:15:11.279Z,9.57
2019-01-20T01:17:39.544Z,14.63
2019-01-20T01:20:10.674Z,12.40
2019-01-20T01:22:38.946Z,11.80
2019-01-20T01:25:09.286Z,11.27
2019-01-20T01:27:37.710Z,11.13
2019-01-20T01:30:09.341Z,10.57
2019-01-20T01:32:37.639Z,12.77
2019-01-20T01:35:06.926Z,9.80
2019-01-20T01:37:35.209Z,11.83
2019-01-20T01:40:04.479Z,7.47
2019-01-20T01:42:32.744Z,10.33
2019-01-20T01:45:01.059Z,7.07
2019-01-20T01:47:29.304Z,9.00
2019-01-20T01:49:57.588Z,8.90
2019-01-20T01:52:25.869Z,9.37
2019-01-20T01:54:54.155Z,8.73
2019-01-20T01:57:22.410Z,6.80
2019-01-20T01:59:50.694Z,7.83
2019-01-20T02:02:18.965Z,7.50
2019-01-20T02:04:47.272Z,8.50
2019-01-20T02:07:15.535Z,11.47
2019-01-20T02:09:43.791Z,9.33
2019-01-20T02:12:12.115Z,10.73
2019-01-20T02:14:40.379Z,10.03
2019-01-20T02:17:08.701Z,14.87
2019-01-20T02:19:36.953Z,8.80
2019-01-20T02:22:05.230Z,9.67
2019-01-20T02:24:33.496Z,9.67
2019-01-20T02:27:01.786Z,9.53
2019-01-20T02:29:30.115Z,11.70
2019-01-20T02:31:58.418Z,9.87
2019-01-20T02:34:26.750Z,11.17
2019-01-20T02:36:55.040Z,8.13
2019-01-20T02:39:23.323Z,10.80
2019-01-20T02:41:55.233Z,9.43
2019-01-20T02:44:21.620Z,10.67
2019-01-20T02:46:49.961Z,8.20
2019-01-20T02:49:18.348Z,13.43
2019-01-20T02:51:46.649Z,11.87
2019-01-20T02:54:14.963Z,12.67
2019-01-20T02:56:43.239Z,9.47
2019-01-20T02:59:11.511Z,8.73
2019-01-20T03:01:40.390Z,10.20
2019-01-20T03:04:08.738Z,10.20
2019-01-20T03:06:37.040Z,11.27
2019-01-20T03:09:07.795Z,9.33
2019-01-20T03:11:36.078Z,12.40
2019-01-20T03:14:04.408Z,11.17
2019-01-20T03:16:32.732Z,11.17
2019-01-20T03:19:01.403Z,11.00
2019-01-20T03:21:29.670Z,10.20
2019-01-20T03:23:58.039Z,9.87
2019-01-20T03:26:26.289Z,9.83
2019-01-20T03:28:54.605Z,11.60
2019-01-20T03:31:22.867Z,11.13
2019-01-20T03:33:51.159Z,9.23
2019-01-20T03:36:19.419Z,11.23
2019-01-20T03:38:47.689Z,10.47
2019-01-20T03:41:15.955Z,8.60
2019-01-20T03:43:44.240Z,8.20
2019-01-20T03:46:12.524Z,11.67
2019-01-20T03:48:40.823Z,10.07
2019-01-20T03:51:09.078Z,10.00
2019-01-20T03:53:37.373Z,8.77
2019-01-20T03:56:05.654Z,7.87
2019-01-20T03:58:34.000Z,7.23
2019-01-20T04:01:02.268Z,9.17
2019-01-20T04:03:30.570Z,7.23
2019-01-20T04:05:58.907Z,6.70
2019-01-20T04:08:27.278Z,8.37
2019-01-20T04:10:55.554Z,11.07
2019-01-20T04:13:23.817Z,11.70
2019-01-20T04:15:52.115Z,10.13
2019-01-20T04:18:20.383Z,7.70
2019-01-20T04:20:48.779Z,11.10
2019-01-20T04:23:17.045Z,8.63
2019-01-20T04:25:46.893Z,7.33
2019-01-20T04:28:15.239Z,9.10
2019-01-20T04:30:43.507Z,8.17
2019-01-20T04:33:11.763Z,7.63
2019-01-20T04:35:40.050Z,7.10
2019-01-20T04:38:08.329Z,6.27
2019-01-20T04:40:36.665Z,7.67
2019-01-20T04:43:04.951Z,5.60
2019-01-20T04:45:33.248Z,8.50
2019-01-20T04:48:01.500Z,13.63
2019-01-20T04:50:29.796Z,7.23
2019-01-20T04:52:58.060Z,9.30
2019-01-20T04:55:26.359Z,10.67
2019-01-20T04:57:54.877Z,8.20
2019-01-20T05:00:24.826Z,7.40
2019-01-20T05:02:53.270Z,11.40
2019-01-20T05:05:21.525Z,9.77
2019-01-20T05:07:49.815Z,7.37
2019-01-20T05:10:18.705Z,7.13
2019-01-20T05:12:47.010Z,10.53
2019-01-20T05:15:20.460Z,8.27
2019-01-20T05:17:48.752Z,8.37
2019-01-20T05:20:17.448Z,8.40
2019-01-20T05:22:45.818Z,9.40
2019-01-20T05:25:14.188Z,8.40
2019-01-20T05:27:42.489Z,7.43
2019-01-20T05:30:21.770Z,7.13
2019-01-20T05:32:50.037Z,8.43
2019-01-20T05:35:18.309Z,9.03
2019-01-20T05:37:46.585Z,6.00
2019-01-20T05:40:19.042Z,7.90
2019-01-20T05:42:47.519Z,10.90
2019-01-20T05:45:20.565Z,7.93
2019-01-20T05:47:48.850Z,7.47
2019-01-20T05:50:17.112Z,9.93
2019-01-20T05:52:45.391Z,9.40
2019-01-20T05:55:14.738Z,7.63
2019-01-20T05:57:43.067Z,5.73
2019-01-20T06:00:19.967Z,7.90
2019-01-20T06:02:48.250Z,7.00
2019-01-20T06:05:16.514Z,6.90
2019-01-20T06:07:44.768Z,6.63
2019-01-20T06:10:13.694Z,7.83
2019-01-20T06:12:41.997Z,7.53
2019-01-20T06:15:13.088Z,7.27
2019-01-20T06:17:41.351Z,9.37
2019-01-20T06:20:09.889Z,8.77
2019-01-20T06:22:38.146Z,7.50
2019-01-20T06:25:07.910Z,9.23
2019-01-20T06:27:36.234Z,9.23
2019-01-20T06:30:10.415Z,8.77
2019-01-20T06:32:38.709Z,6.93
2019-01-20T06:35:07.064Z,7.03
2019-01-20T06:37:35.381Z,5.87
2019-01-20T06:40:04.303Z,7.13
2019-01-20T06:42:32.564Z,7.60
2019-01-20T06:45:00.859Z,7.17
2019-01-20T06:47:29.129Z,8.30
2019-01-20T06:49:57.450Z,7.50
2019-01-20T06:52:25.709Z,9.40
2019-01-20T06:54:54.088Z,7.73
2019-01-20T06:57:22.450Z,10.63
2019-01-20T06:59:50.828Z,8.10
2019-01-20T07:02:19.100Z,9.77
2019-01-20T07:04:47.394Z,9.37
2019-01-20T07:07:15.690Z,7.50
2019-01-20T07:09:44.000Z,8.63
2019-01-20T07:12:12.266Z,9.70
2019-01-20T07:14:40.553Z,10.73
2019-01-20T07:17:08.873Z,12.20
2019-01-20T07:19:37.199Z,10.10
2019-01-20T07:22:05.489Z,11.60
2019-01-20T07:24:33.763Z,11.67
2019-01-20T07:27:02.038Z,11.03
2019-01-20T07:29:30.424Z,12.80
2019-01-20T07:31:58.705Z,12.43
2019-01-20T07:34:27.568Z,16.30
2019-01-20T07:36:55.946Z,17.87
2019-01-20T07:39:24.241Z,16.83
2019-01-20T07:41:52.487Z,12.70
2019-01-20T07:44:20.779Z,19.97
2019-01-20T07:46:49.158Z,19.27
2019-01-20T07:49:17.481Z,21.10
2019-01-20T07:51:45.854Z,16.13
2019-01-20T07:54:14.193Z,17.67
2019-01-20T07:56:42.498Z,16.43
2019-01-20T07:59:10.858Z,17.47
2019-01-20T08:01:39.146Z,13.30
2019-01-20T08:04:07.424Z,14.10
2019-01-20T08:06:35.719Z,13.20
2019-01-20T08:09:06.575Z,14.90
2019-01-20T08:11:34.882Z,15.07
2019-01-20T08:14:03.223Z,16.77
2019-01-20T08:16:31.514Z,18.63
2019-01-20T08:18:59.828Z,19.70
2019-01-20T08:21:28.244Z,19.57
2019-01-20T08:23:56.544Z,18.70
2019-01-20T08:26:24.854Z,17.57
2019-01-20T08:28:53.159Z,23.83
2019-01-20T08:31:21.426Z,13.97
2019-01-20T08:33:49.735Z,17.50
2019-01-20T08:36:17.998Z,18.77
2019-01-20T08:38:46.288Z,15.70
2019-01-20T08:41:14.587Z,20.77
2019-01-20T08:43:42.903Z,21.47
2019-01-20T08:46:22.572Z,25.73
2019-01-20T08:48:50.874Z,20.80
2019-01-20T08:51:19.135Z,16.13
2019-01-20T08:53:47.458Z,20.83
2019-01-20T08:56:15.828Z,14.57
2019-01-20T08:58:44.154Z,13.53
2019-01-20T09:01:12.452Z,13.17
2019-01-20T09:03:40.794Z,12.50
2019-01-20T09:06:09.178Z,12.67
2019-01-20T09:08:37.530Z,16.00
2019-01-20T09:11:05.808Z,16.17
2019-01-20T09:13:39.694Z,15.17
2019-01-20T09:16:04.433Z,12.23
2019-01-20T09:18:32.700Z,15.37
2019-01-20T09:21:01.025Z,19.00
2019-01-20T09:23:29.319Z,16.77
2019-01-20T09:25:57.628Z,23.87
2019-01-20T09:28:25.970Z,37.17
2019-01-20T09:30:54.273Z,39.23
2019-01-20T09:33:24.703Z,32.20
2019-01-20T09:35:52.575Z,30.30
2019-01-20T09:38:20.825Z,24.43
2019-01-20T09:40:49.119Z,21.70
2019-01-20T09:43:17.418Z,24.17
2019-01-20T09:45:46.029Z,20.80
2019-01-20T09:48:14.465Z,22.67
2019-01-20T09:50:42.735Z,20.33
2019-01-20T09:53:11.110Z,19.17
2019-01-20T09:55:39.475Z,20.47
2019-01-20T09:58:07.787Z,19.03
2019-01-20T10:00:36.130Z,24.10
2019-01-20T10:03:04.425Z,19.40
2019-01-20T10:05:32.694Z,17.17
2019-01-20T10:08:01.008Z,16.63
2019-01-20T10:10:29.279Z,15.90
2019-01-20T10:12:57.574Z,15.33
2019-01-20T10:15:25.920Z,15.10
2019-01-20T10:17:54.233Z,15.73
2019-01-20T10:20:25.397Z,13.13
2019-01-20T10:22:53.679Z,14.57
2019-01-20T10:25:21.973Z,17.63
2019-01-20T10:27:50.379Z,14.70
2019-01-20T10:30:27.709Z,15.57
2019-01-20T10:32:56.021Z,12.30
2019-01-20T10:35:26.017Z,13.03
2019-01-20T10:37:55.846Z,13.50
2019-01-20T10:40:25.267Z,10.77
2019-01-20T10:42:53.659Z,11.60
2019-01-20T10:45:21.935Z,12.00
2019-01-20T10:47:50.309Z,23.73
2019-01-20T10:50:19.684Z,17.50
2019-01-20T10:52:48.011Z,20.57
2019-01-20T10:55:16.313Z,15.30
2019-01-20T10:57:45.717Z,18.70
2019-01-20T11:00:22.798Z,17.80
2019-01-20T11:02:51.134Z,18.07
2019-01-20T11:05:24.970Z,16.77
2019-01-20T11:07:49.593Z,16.97
2019-01-20T11:10:18.026Z,14.73
2019-01-20T11:12:46.355Z,15.27
2019-01-20T11:15:15.938Z,15.43
2019-01-20T11:17:44.293Z,13.80
2019-01-20T11:20:20.987Z,16.47
2019-01-20T11:22:49.353Z,15.57
2019-01-20T11:25:26.623Z,17.13
2019-01-20T11:27:54.899Z,16.80
2019-01-20T11:30:23.193Z,15.40
2019-01-20T11:32:51.665Z,14.47
2019-01-20T11:35:20.129Z,14.53
2019-01-20T11:37:48.578Z,17.90
2019-01-20T11:40:16.904Z,17.47
2019-01-20T11:42:45.274Z,23.33
2019-01-20T11:45:16.550Z,24.10
2019-01-20T11:47:44.915Z,16.97
2019-01-20T11:50:13.575Z,15.53
2019-01-20T11:52:41.878Z,15.80
2019-01-20T11:55:13.150Z,15.10
2019-01-20T11:57:41.551Z,18.93
2019-01-20T12:00:13.083Z,15.97
2019-01-20T12:02:41.382Z,17.13
2019-01-20T12:05:11.886Z,19.70
2019-01-20T12:07:40.276Z,13.17
2019-01-20T12:10:10.037Z,12.70
2019-01-20T12:12:38.916Z,11.77
2019-01-20T12:15:12.408Z,11.83
2019-01-20T12:17:40.712Z,11.90
2019-01-20T12:20:14.228Z,16.90
2019-01-20T12:22:42.572Z,12.37
2019-01-20T12:25:14.173Z,14.40
2019-01-20T12:27:42.529Z,11.43
2019-01-20T12:30:16.848Z,8.90
2019-01-20T12:32:45.170Z,15.40
2019-01-20T12:35:13.518Z,15.80
2019-01-20T12:37:41.874Z,16.13
2019-01-20T12:40:13.579Z,8.20
2019-01-20T12:42:41.883Z,6.87
2019-01-20T12:45:10.225Z,6.87
2019-01-20T12:47:38.524Z,8.17
2019-01-20T12:50:10.106Z,5.43
2019-01-20T12:52:38.419Z,5.43
2019-01-20T12:55:07.409Z,5.73
2019-01-20T12:57:35.792Z,9.53
2019-01-20T13:00:06.773Z,6.07
2019-01-20T13:02:35.110Z,11.57
2019-01-20T13:05:03.572Z,6.97
2019-01-20T13:07:31.859Z,13.40
2019-01-20T13:10:00.284Z,8.60
2019-01-20T13:12:28.551Z,11.70
2019-01-20T13:14:56.989Z,8.83
2019-01-20T13:17:25.343Z,7.90
2019-01-20T13:19:53.645Z,3.30
2019-01-20T13:22:21.982Z,6.20
2019-01-20T13:24:50.270Z,3.10
2019-01-20T13:27:18.573Z,12.43
2019-01-20T13:29:46.933Z,11.20
2019-01-20T13:32:15.194Z,10.63
2019-01-20T13:34:43.497Z,7.37
2019-01-20T13:37:11.795Z,10.93
2019-01-20T13:39:40.083Z,4.13
2019-01-20T13:42:08.351Z,9.70
2019-01-20T13:44:36.681Z,4.30
2019-01-20T13:47:05.030Z,8.67
2019-01-20T13:49:33.400Z,4.60
2019-01-20T13:52:01.648Z,3.87
2019-01-20T13:54:29.908Z,5.55
2019-01-20T13:56:58.212Z,8.63
2019-01-20T13:59:26.468Z,4.62
2019-01-20T14:01:54.789Z,9.10
2019-01-20T14:04:23.111Z,8.43
2019-01-20T14:06:51.494Z,4.47
2019-01-20T14:09:19.749Z,6.40
2019-01-20T14:11:48.055Z,9.00
2019-01-20T14:14:16.307Z,17.17
2019-01-20T14:16:44.677Z,17.27
2019-01-20T14:19:13.060Z,9.33
2019-01-20T14:21:41.423Z,13.87
2019-01-20T14:24:09.734Z,9.30
2019-01-20T14:26:38.037Z,31.63
2019-01-20T14:29:06.320Z,27.97
2019-01-20T14:31:34.690Z,18.67
2019-01-20T14:34:02.943Z,31.97
2019-01-20T14:36:31.276Z,18.87
2019-01-20T14:38:59.630Z,9.10
2019-01-20T14:41:27.959Z,13.83
2019-01-20T14:43:56.253Z,14.30
2019-01-20T14:46:24.548Z,35.53
2019-01-20T14:48:52.916Z,21.37
2019-01-20T14:51:21.161Z,21.50
2019-01-20T14:53:49.450Z,20.37
2019-01-20T14:56:17.805Z,13.00
2019-01-20T14:58:46.188Z,15.73
2019-01-20T15:01:14.449Z,9.80
2019-01-20T15:03:43.010Z,40.73
2019-01-20T15:06:11.351Z,17.80
2019-01-20T15:08:39.625Z,18.87
2019-01-20T15:11:08.695Z,21.00
2019-01-20T15:13:37.090Z,16.43
2019-01-20T15:16:05.354Z,12.47
2019-01-20T15:18:33.649Z,14.47
2019-01-20T15:21:01.914Z,12.70
2019-01-20T15:23:30.202Z,14.83
2019-01-20T15:25:58.483Z,14.90
2019-01-20T15:28:26.824Z,16.63
2019-01-20T15:30:55.114Z,22.27
2019-01-20T15:33:23.433Z,13.10
2019-01-20T15:35:51.698Z,22.07
2019-01-20T15:38:20.058Z,17.10
2019-01-20T15:40:48.366Z,17.50
2019-01-20T15:43:16.705Z,20.60
2019-01-20T15:45:44.994Z,18.53
2019-01-20T15:48:13.335Z,36.70
2019-01-20T15:50:41.658Z,37.40
2019-01-20T15:53:09.994Z,19.17
2019-01-20T15:55:38.298Z,22.50
2019-01-20T15:58:06.623Z,36.13
2019-01-20T16:00:34.917Z,32.87
2019-01-20T16:03:03.224Z,45.33
2019-01-20T16:05:31.527Z,32.83
2019-01-20T16:07:59.798Z,35.00
2019-01-20T16:10:28.084Z,34.53
2019-01-20T16:12:56.428Z,29.17
2019-01-20T16:15:29.848Z,22.83
2019-01-20T16:17:58.208Z,21.27
2019-01-20T16:20:27.411Z,21.57
2019-01-20T16:22:55.734Z,23.33
2019-01-20T16:25:29.249Z,19.77
2019-01-20T16:27:57.585Z,19.30
2019-01-20T16:30:28.193Z,21.77
2019-01-20T16:32:56.569Z,16.93
2019-01-20T16:35:25.383Z,15.57
2019-01-20T16:37:54.199Z,17.43
2019-01-20T16:40:24.103Z,15.53
2019-01-20T16:42:52.494Z,12.03
2019-01-20T16:45:24.024Z,10.87
2019-01-20T16:47:52.335Z,13.20
2019-01-20T16:50:22.963Z,11.53
2019-01-20T16:52:54.710Z,14.93
2019-01-20T16:55:21.260Z,15.37
2019-01-20T16:57:49.579Z,15.60
2019-01-20T17:00:23.438Z,10.90
2019-01-20T17:02:51.983Z,10.00
2019-01-20T17:05:20.282Z,12.63
2019-01-20T17:07:48.607Z,13.47
2019-01-20T17:10:21.908Z,13.37
2019-01-20T17:12:50.210Z,11.70
2019-01-20T17:15:23.573Z,10.17
2019-01-20T17:17:51.854Z,13.37
2019-01-20T17:20:20.149Z,12.17
2019-01-20T17:22:48.754Z,15.27
2019-01-20T17:25:17.669Z,11.10
2019-01-20T17:27:46.074Z,13.63
2019-01-20T17:30:17.400Z,15.47
2019-01-20T17:32:45.685Z,17.37
2019-01-20T17:35:14.120Z,18.00
2019-01-20T17:37:42.375Z,17.50
2019-01-20T17:40:13.804Z,21.13
2019-01-20T17:42:42.117Z,20.20
2019-01-20T17:45:12.939Z,20.50
2019-01-20T17:47:41.300Z,57.23
2019-01-20T17:50:21.393Z,26.87
2019-01-20T17:52:49.674Z,26.43
2019-01-20T17:55:18.055Z,20.20
2019-01-20T17:57:46.401Z,24.27
2019-01-20T18:00:17.750Z,22.90
2019-01-20T18:02:46.024Z,23.50
2019-01-20T18:05:17.088Z,20.17
2019-01-20T18:07:45.494Z,21.90
2019-01-20T18:10:14.875Z,20.07
2019-01-20T18:12:43.303Z,25.40
2019-01-20T18:15:17.091Z,23.73
2019-01-20T18:17:45.430Z,23.00
2019-01-20T18:20:16.855Z,25.23
2019-01-20T18:22:45.124Z,23.67
2019-01-20T18:25:15.084Z,21.27
2019-01-20T18:27:43.439Z,25.67
2019-01-20T18:30:23.543Z,22.50
2019-01-20T18:32:51.824Z,19.80
2019-01-20T18:35:20.456Z,23.57
2019-01-20T18:37:48.847Z,23.47
2019-01-20T18:40:21.787Z,23.93
2019-01-20T18:42:50.113Z,19.80
2019-01-20T18:45:20.569Z,24.83
2019-01-20T18:47:49.078Z,24.43
2019-01-20T18:50:19.938Z,23.67
2019-01-20T18:52:48.230Z,21.80
2019-01-20T18:55:16.880Z,20.60
2019-01-20T18:57:45.434Z,19.03
2019-01-20T19:00:28.493Z,19.17
2019-01-20T19:02:56.900Z,17.17
2019-01-20T19:05:25.350Z,23.37
2019-01-20T19:07:55.487Z,21.63
2019-01-20T19:10:23.798Z,20.27
2019-01-20T19:12:52.223Z,20.70
2019-01-20T19:15:22.939Z,22.60
2019-01-20T19:17:51.302Z,21.87
2019-01-20T19:20:21.520Z,16.43
2019-01-20T19:22:50.984Z,17.67
2019-01-20T19:25:19.329Z,16.30
2019-01-20T19:27:47.703Z,17.33
2019-01-20T19:30:24.668Z,21.63
2019-01-20T19:32:52.960Z,19.63
2019-01-20T19:35:21.254Z,22.00
2019-01-20T19:37:49.574Z,19.97
2019-01-20T19:40:17.865Z,21.33
2019-01-20T19:42:46.203Z,25.10
2019-01-20T19:45:16.972Z,29.07
2019-01-20T19:47:46.208Z,23.00
2019-01-20T19:50:15.929Z,23.63
2019-01-20T19:52:44.232Z,24.03
2019-01-20T19:55:15.344Z,20.67
2019-01-20T19:57:43.613Z,21.80
2019-01-20T20:00:17.721Z,26.40
2019-01-20T20:02:46.142Z,22.73
2019-01-20T20:05:16.418Z,27.93
2019-01-20T20:07:44.860Z,20.60
2019-01-20T20:10:15.598Z,22.93
2019-01-20T20:12:43.932Z,19.30
2019-01-20T20:15:15.642Z,20.17
2019-01-20T20:17:43.930Z,20.10
2019-01-20T20:20:16.726Z,17.50
2019-01-20T20:22:44.990Z,19.90
2019-01-20T20:25:18.323Z,18.77
2019-01-20T20:27:46.594Z,24.80
2019-01-20T20:30:22.955Z,19.43
2019-01-20T20:32:51.253Z,20.53
2019-01-20T20:35:19.638Z,20.90
2019-01-20T20:37:47.995Z,19.93
2019-01-20T20:40:20.323Z,18.43
2019-01-20T20:42:48.673Z,19.03
2019-01-20T20:45:24.636Z,21.23
2019-01-20T20:47:52.971Z,20.10
2019-01-20T20:50:21.404Z,17.47
2019-01-20T20:52:49.714Z,23.50
2019-01-20T20:55:19.673Z,19.80
2019-01-20T20:57:48.023Z,23.60
2019-01-20T21:00:22.099Z,19.70
2019-01-20T21:02:50.414Z,20.53
2019-01-20T21:05:18.670Z,17.40
2019-01-20T21:07:46.959Z,22.70
2019-01-20T21:10:16.878Z,19.33
2019-01-20T21:12:45.158Z,15.80
2019-01-20T21:15:15.302Z,14.03
2019-01-20T21:17:48.128Z,16.93
2019-01-20T21:20:24.035Z,17.07
2019-01-20T21:22:52.371Z,17.23
2019-01-20T21:25:20.659Z,21.43
2019-01-20T21:27:49.174Z,16.90
2019-01-20T21:30:22.799Z,21.03
2019-01-20T21:32:51.120Z,19.83
2019-01-20T21:35:19.512Z,19.87
2019-01-20T21:37:47.815Z,17.80
2019-01-20T21:40:17.722Z,14.97
2019-01-20T21:42:46.047Z,16.43
2019-01-20T21:45:15.660Z,15.60
2019-01-20T21:47:44.030Z,23.07
2019-01-20T21:50:20.410Z,25.80
2019-01-20T21:52:48.724Z,21.17
2019-01-20T21:55:17.025Z,17.30
2019-01-20T21:57:45.347Z,16.77
2019-01-20T22:00:16.062Z,13.43
2019-01-20T22:02:44.373Z,15.57
2019-01-20T22:05:12.723Z,16.73
2019-01-20T22:07:41.099Z,17.83
2019-01-20T22:10:12.125Z,15.10
2019-01-20T22:12:40.435Z,17.33
2019-01-20T22:15:10.585Z,13.07
2019-01-20T22:17:38.954Z,15.97
2019-01-20T22:20:13.079Z,14.97
2019-01-20T22:22:41.409Z,14.93
2019-01-20T22:25:10.836Z,15.27
2019-01-20T22:27:39.170Z,15.97
2019-01-20T22:30:16.449Z,14.67
2019-01-20T22:32:44.901Z,17.87
2019-01-20T22:35:13.372Z,19.87
2019-01-20T22:37:41.665Z,20.47
2019-01-20T22:40:14.954Z,20.20
2019-01-20T22:42:43.256Z,18.67
2019-01-20T22:45:13.866Z,16.80
2019-01-20T22:47:42.279Z,17.47
2019-01-20T22:50:12.435Z,15.30
2019-01-20T22:52:40.892Z,16.03
2019-01-20T22:55:11.617Z,13.67
2019-01-20T22:57:39.943Z,13.07
2019-01-20T23:00:36.663Z,13.63
2019-01-20T23:03:04.931Z,13.57
2019-01-20T23:05:33.277Z,13.27
2019-01-20T23:08:01.587Z,13.10
2019-01-20T23:10:29.940Z,12.33
2019-01-20T23:12:58.228Z,16.97
2019-01-20T23:15:26.499Z,18.30
2019-01-20T23:17:54.868Z,19.07
2019-01-20T23:20:23.159Z,20.30
2019-01-20T23:22:51.454Z,23.93
2019-01-20T23:25:19.829Z,27.00
2019-01-20T23:27:48.141Z,20.13
2019-01-20T23:30:16.459Z,17.77
2019-01-20T23:32:44.908Z,24.20
2019-01-20T23:35:13.178Z,25.40
2019-01-20T23:37:41.473Z,21.20
2019-01-20T23:40:15.298Z,23.17
2019-01-20T23:42:43.623Z,22.30
2019-01-20T23:45:12.864Z,18.47
2019-01-20T23:47:41.194Z,20.17
2019-01-20T23:50:14.768Z,17.47
2019-01-20T23:52:43.179Z,14.67
2019-01-20T23:55:12.068Z,15.67
2019-01-20T23:57:40.376Z,17.07
